createdAt,value
2018-05-18T00:00:21.655Z,12.93
2018-05-18T00:02:49.489Z,12.97
2018-05-18T00:05:17.264Z,10.50
2018-05-18T00:07:44.959Z,13.53
2018-05-18T00:10:12.985Z,15.87
2018-05-18T00:12:41.709Z,9.53
2018-05-18T00:15:10.497Z,8.77
2018-05-18T00:17:38.901Z,8.00
2018-05-18T00:20:06.797Z,12.47
2018-05-18T00:22:34.561Z,10.70
2018-05-18T00:25:02.324Z,7.60
2018-05-18T00:27:30.086Z,14.10
2018-05-18T00:29:57.953Z,11.30
2018-05-18T00:32:25.715Z,12.67
2018-05-18T00:34:53.580Z,15.00
2018-05-18T00:37:22.469Z,13.77
2018-05-18T00:39:51.364Z,12.37
2018-05-18T00:42:18.808Z,12.87
2018-05-18T00:44:46.339Z,12.20
2018-05-18T00:47:14.616Z,16.20
2018-05-18T00:49:42.907Z,13.13
2018-05-18T00:52:10.439Z,13.00
2018-05-18T00:54:37.943Z,11.63
2018-05-18T00:57:05.479Z,12.33
2018-05-18T00:59:33.011Z,16.53
2018-05-18T01:02:00.550Z,14.20
2018-05-18T01:04:28.081Z,12.20
2018-05-18T01:06:55.583Z,9.90
2018-05-18T01:09:23.882Z,13.60
2018-05-18T01:11:51.424Z,9.80
2018-05-18T01:14:19.724Z,11.03
2018-05-18T01:16:47.227Z,10.73
2018-05-18T01:19:14.827Z,10.40
2018-05-18T01:21:42.326Z,12.87
2018-05-18T01:24:09.832Z,11.27
2018-05-18T01:26:38.123Z,17.33
2018-05-18T01:29:05.621Z,9.40
2018-05-18T01:31:33.153Z,13.70
2018-05-18T01:34:00.677Z,11.13
2018-05-18T01:36:28.982Z,13.73
2018-05-18T01:38:56.542Z,12.27
2018-05-18T01:41:24.079Z,13.90
2018-05-18T01:43:51.587Z,12.20
2018-05-18T01:46:20.047Z,15.40
2018-05-18T01:48:48.516Z,11.90
2018-05-18T01:51:16.015Z,11.90
2018-05-18T01:53:43.523Z,12.47
2018-05-18T01:56:13.032Z,10.70
2018-05-18T01:58:40.557Z,11.60
2018-05-18T02:01:08.851Z,11.43
2018-05-18T02:03:36.360Z,14.70
2018-05-18T02:06:03.879Z,13.80
2018-05-18T02:08:31.412Z,11.23
2018-05-18T02:10:59.712Z,14.20
2018-05-18T02:13:27.216Z,11.70
2018-05-18T02:15:54.726Z,13.90
2018-05-18T02:18:22.251Z,9.27
2018-05-18T02:20:50.527Z,11.07
2018-05-18T02:23:19.723Z,11.23
2018-05-18T02:25:47.992Z,12.63
2018-05-18T02:28:16.315Z,10.07
2018-05-18T02:30:43.821Z,11.70
2018-05-18T02:33:11.311Z,9.73
2018-05-18T02:35:38.835Z,10.93
2018-05-18T02:38:07.129Z,11.27
2018-05-18T02:40:34.654Z,11.33
2018-05-18T02:43:02.187Z,10.87
2018-05-18T02:45:31.670Z,11.77
2018-05-18T02:47:59.202Z,10.57
2018-05-18T02:50:26.735Z,12.80
2018-05-18T02:52:55.970Z,12.00
2018-05-18T02:55:23.472Z,13.20
2018-05-18T02:57:51.025Z,10.50
2018-05-18T03:00:18.535Z,11.70
2018-05-18T03:02:46.077Z,10.03
2018-05-18T03:05:14.350Z,10.83
2018-05-18T03:07:42.651Z,11.50
2018-05-18T03:10:10.153Z,12.97
2018-05-18T03:12:38.615Z,11.67
2018-05-18T03:15:06.144Z,10.30
2018-05-18T03:17:33.663Z,10.80
2018-05-18T03:20:02.960Z,9.40
2018-05-18T03:22:30.498Z,10.10
2018-05-18T03:24:58.048Z,10.50
2018-05-18T03:27:25.551Z,10.30
2018-05-18T03:29:53.864Z,12.50
2018-05-18T03:32:21.390Z,11.57
2018-05-18T03:34:49.669Z,12.00
2018-05-18T03:37:17.967Z,11.27
2018-05-18T03:39:45.495Z,13.30
2018-05-18T03:42:13.796Z,12.37
2018-05-18T03:44:41.295Z,14.67
2018-05-18T03:47:08.825Z,10.83
2018-05-18T03:49:37.289Z,9.73
2018-05-18T03:52:04.817Z,9.10
2018-05-18T03:54:34.047Z,11.43
2018-05-18T03:57:01.549Z,10.97
2018-05-18T03:59:29.074Z,10.77
2018-05-18T04:02:08.531Z,10.27
2018-05-18T04:04:48.047Z,11.23
2018-05-18T04:07:27.515Z,9.53
2018-05-18T04:09:55.082Z,9.03
2018-05-18T04:12:23.349Z,8.50
2018-05-18T04:14:52.826Z,12.23
2018-05-18T04:17:21.273Z,11.33
2018-05-18T04:19:48.846Z,8.60
2018-05-18T04:22:17.127Z,12.07
2018-05-18T04:24:44.647Z,11.87
2018-05-18T04:27:12.955Z,12.30
2018-05-18T04:29:40.460Z,12.23
2018-05-18T04:32:07.997Z,11.17
2018-05-18T04:34:35.511Z,10.87
2018-05-18T04:37:04.988Z,13.03
2018-05-18T04:39:33.256Z,18.77
2018-05-18T04:42:01.595Z,10.77
2018-05-18T04:44:29.119Z,11.13
2018-05-18T04:46:58.340Z,12.83
2018-05-18T04:49:25.870Z,25.23
2018-05-18T04:51:53.390Z,15.30
2018-05-18T04:54:20.923Z,14.83
2018-05-18T04:56:48.437Z,12.40
2018-05-18T04:59:16.725Z,15.07
2018-05-18T05:01:44.245Z,10.77
2018-05-18T05:04:11.768Z,10.63
2018-05-18T05:06:39.297Z,13.57
2018-05-18T05:09:07.783Z,12.30
2018-05-18T05:11:35.319Z,12.40
2018-05-18T05:14:03.588Z,8.43
2018-05-18T05:16:31.895Z,14.33
2018-05-18T05:18:59.403Z,9.50
2018-05-18T05:21:26.916Z,18.23
2018-05-18T05:23:54.444Z,46.53
2018-05-18T05:26:22.727Z,74.43
2018-05-18T05:28:50.268Z,176.73
2018-05-18T05:31:18.549Z,217.53
2018-05-18T05:33:46.856Z,191.63
2018-05-18T05:36:15.330Z,176.07
2018-05-18T05:38:42.840Z,202.57
2018-05-18T05:41:10.364Z,173.73
2018-05-18T05:43:38.507Z,179.83
2018-05-18T05:46:06.031Z,174.00
2018-05-18T05:48:34.304Z,179.80
2018-05-18T05:51:02.624Z,172.23
2018-05-18T05:53:30.150Z,177.70
2018-05-18T05:55:59.394Z,170.77
2018-05-18T05:58:26.952Z,163.60
2018-05-18T06:00:54.470Z,179.33
2018-05-18T06:03:23.725Z,163.60
2018-05-18T06:05:51.240Z,145.33
2018-05-18T06:08:18.791Z,154.47
2018-05-18T06:10:46.315Z,138.63
2018-05-18T06:13:13.845Z,127.70
2018-05-18T06:15:41.356Z,139.73
2018-05-18T06:18:09.636Z,131.07
2018-05-18T06:20:37.167Z,118.37
2018-05-18T06:23:07.132Z,108.43
2018-05-18T06:25:34.667Z,128.43
2018-05-18T06:28:03.123Z,125.50
2018-05-18T06:30:31.419Z,132.57
2018-05-18T06:32:59.750Z,125.47
2018-05-18T06:35:27.261Z,112.83
2018-05-18T06:37:54.821Z,118.47
2018-05-18T06:40:23.300Z,110.40
2018-05-18T06:42:50.827Z,110.87
2018-05-18T06:45:18.328Z,98.87
2018-05-18T06:47:45.831Z,129.17
2018-05-18T06:50:14.136Z,106.47
2018-05-18T06:52:41.732Z,103.60
2018-05-18T06:55:11.957Z,109.90
2018-05-18T07:00:13.377Z,86.63
2018-05-18T07:02:40.887Z,84.57
2018-05-18T07:05:08.404Z,85.03
2018-05-18T07:07:35.941Z,90.40
2018-05-18T07:10:04.211Z,90.60
2018-05-18T07:12:32.536Z,97.53
2018-05-18T07:15:00.047Z,82.73
2018-05-18T07:17:28.348Z,91.97
2018-05-18T07:19:55.859Z,75.13
2018-05-18T07:22:23.373Z,65.63
2018-05-18T07:24:50.924Z,75.23
2018-05-18T07:27:18.454Z,66.30
2018-05-18T07:29:46.740Z,75.63
2018-05-18T07:32:15.232Z,66.70
2018-05-18T07:34:42.760Z,64.30
2018-05-18T07:37:11.064Z,65.43
2018-05-18T07:39:38.571Z,65.83
2018-05-18T07:42:06.087Z,58.13
2018-05-18T07:44:33.632Z,65.13
2018-05-18T07:47:01.162Z,64.70
2018-05-18T07:49:29.487Z,50.00
2018-05-18T07:51:57.007Z,79.67
2018-05-18T07:54:25.309Z,57.20
2018-05-18T07:56:52.820Z,54.60
2018-05-18T07:59:21.133Z,44.77
2018-05-18T08:01:49.416Z,44.13
2018-05-18T08:04:16.927Z,42.73
2018-05-18T08:06:44.485Z,55.97
2018-05-18T08:09:12.003Z,41.77
2018-05-18T08:11:39.550Z,40.17
2018-05-18T08:14:07.055Z,52.53
2018-05-18T08:16:34.565Z,47.30
2018-05-18T08:19:02.119Z,40.30
2018-05-18T08:21:29.640Z,50.57
2018-05-18T08:23:58.907Z,43.63
2018-05-18T08:26:26.428Z,37.03
2018-05-18T08:29:05.759Z,35.07
2018-05-18T08:31:33.274Z,37.00
2018-05-18T08:34:01.571Z,32.40
2018-05-18T08:36:29.847Z,32.63
2018-05-18T08:38:58.116Z,39.03
2018-05-18T08:41:25.666Z,40.80
2018-05-18T08:43:53.976Z,34.47
2018-05-18T08:46:21.511Z,37.53
2018-05-18T08:48:49.787Z,37.67
2018-05-18T08:51:18.083Z,23.90
2018-05-18T08:53:45.643Z,39.93
2018-05-18T08:56:13.175Z,29.43
2018-05-18T08:58:41.476Z,38.67
2018-05-18T09:01:08.980Z,29.50
2018-05-18T09:03:36.544Z,33.67
2018-05-18T09:06:04.816Z,36.60
2018-05-18T09:08:32.359Z,28.50
2018-05-18T09:10:59.867Z,23.97
2018-05-18T09:13:28.143Z,27.83
2018-05-18T09:15:56.483Z,22.30
2018-05-18T09:18:23.952Z,23.90
2018-05-18T09:20:52.247Z,34.83
2018-05-18T09:23:20.517Z,21.07
2018-05-18T09:25:48.811Z,26.47
2018-05-18T09:28:16.324Z,28.77
2018-05-18T09:30:43.839Z,22.87
2018-05-18T09:33:11.367Z,22.20
2018-05-18T09:35:39.637Z,22.80
2018-05-18T09:38:07.940Z,18.00
2018-05-18T09:40:35.456Z,21.17
2018-05-18T09:43:03.743Z,23.83
2018-05-18T09:45:32.022Z,21.40
2018-05-18T09:48:00.327Z,25.37
2018-05-18T09:50:27.838Z,21.07
2018-05-18T09:52:56.129Z,20.43
2018-05-18T09:55:24.686Z,24.60
2018-05-18T09:57:51.967Z,28.83
2018-05-18T10:00:20.271Z,23.13
2018-05-18T10:02:47.771Z,22.33
2018-05-18T10:05:15.309Z,19.60
2018-05-18T10:07:42.815Z,24.20
2018-05-18T10:10:12.040Z,27.57
2018-05-18T10:12:39.560Z,20.30
2018-05-18T10:15:07.835Z,22.93
2018-05-18T10:17:36.127Z,19.37
2018-05-18T10:20:03.623Z,19.00
2018-05-18T10:22:31.161Z,18.43
2018-05-18T10:24:58.695Z,18.40
2018-05-18T10:27:26.195Z,16.43
2018-05-18T10:29:53.731Z,19.63
2018-05-18T10:32:21.254Z,20.30
2018-05-18T10:34:51.512Z,11.90
2018-05-18T10:37:19.041Z,17.10
2018-05-18T10:39:46.562Z,17.47
2018-05-18T10:42:14.055Z,18.80
2018-05-18T10:44:42.350Z,16.27
2018-05-18T10:47:09.851Z,13.67
2018-05-18T10:49:37.369Z,15.27
2018-05-18T10:52:04.896Z,13.50
2018-05-18T10:54:33.163Z,20.03
2018-05-18T10:57:01.453Z,15.40
2018-05-18T10:59:29.717Z,14.30
2018-05-18T11:01:58.007Z,16.80
2018-05-18T11:04:26.488Z,16.33
2018-05-18T11:06:54.048Z,15.83
2018-05-18T11:09:21.560Z,16.87
2018-05-18T11:11:49.070Z,11.33
2018-05-18T11:14:16.687Z,22.70
2018-05-18T11:16:44.119Z,15.13
2018-05-18T11:19:11.649Z,19.60
2018-05-18T11:21:39.157Z,17.43
2018-05-18T11:24:07.432Z,11.77
2018-05-18T11:26:35.739Z,14.40
2018-05-18T11:29:03.256Z,11.17
2018-05-18T11:31:30.787Z,11.50
2018-05-18T11:33:58.312Z,10.53
2018-05-18T11:36:25.832Z,14.47
2018-05-18T11:38:53.327Z,11.57
2018-05-18T11:41:20.828Z,15.13
2018-05-18T11:43:48.358Z,10.23
2018-05-18T11:46:16.824Z,17.83
2018-05-18T11:48:44.350Z,10.27
2018-05-18T11:51:12.615Z,13.77
2018-05-18T11:53:40.135Z,13.27
2018-05-18T11:56:07.652Z,11.43
2018-05-18T11:58:35.955Z,14.43
2018-05-18T12:01:04.399Z,13.40
2018-05-18T12:03:32.660Z,12.40
2018-05-18T12:06:00.180Z,21.73
2018-05-18T12:08:28.639Z,13.00
2018-05-18T12:10:56.172Z,12.83
2018-05-18T12:13:25.384Z,11.07
2018-05-18T12:15:52.915Z,21.27
2018-05-18T12:18:21.196Z,64.70
2018-05-18T12:20:49.483Z,46.30
2018-05-18T12:23:19.745Z,34.50
2018-05-18T12:25:47.255Z,41.30
2018-05-18T12:28:15.542Z,54.03
2018-05-18T12:30:43.812Z,53.30
2018-05-18T12:33:12.120Z,45.83
2018-05-18T12:35:39.617Z,50.73
2018-05-18T12:38:07.208Z,68.47
2018-05-18T12:40:34.663Z,60.33
2018-05-18T12:43:03.895Z,54.23
2018-05-18T12:45:31.430Z,63.07
2018-05-18T12:47:58.939Z,52.77
2018-05-18T12:50:26.472Z,55.63
2018-05-18T12:52:54.970Z,56.77
2018-05-18T12:55:22.471Z,46.23
2018-05-18T12:57:50.759Z,32.90
2018-05-18T13:00:18.263Z,55.00
2018-05-18T13:02:45.803Z,40.53
2018-05-18T13:05:13.312Z,51.23
2018-05-18T13:07:41.599Z,44.87
2018-05-18T13:10:09.104Z,39.47
2018-05-18T13:12:36.603Z,47.83
2018-05-18T13:15:04.915Z,53.60
2018-05-18T13:17:32.419Z,49.37
2018-05-18T13:20:00.718Z,43.60
2018-05-18T13:22:28.240Z,34.40
2018-05-18T13:24:55.776Z,40.30
2018-05-18T13:27:23.280Z,45.53
2018-05-18T13:29:51.567Z,33.67
2018-05-18T13:32:19.083Z,47.57
2018-05-18T13:34:46.599Z,40.93
2018-05-18T13:37:14.119Z,40.47
2018-05-18T13:39:42.396Z,38.03
2018-05-18T13:42:10.694Z,35.07
2018-05-18T13:44:38.268Z,30.07
2018-05-18T13:47:09.196Z,43.00
2018-05-18T13:49:36.699Z,34.40
2018-05-18T13:52:04.237Z,27.80
2018-05-18T13:54:31.748Z,28.37
2018-05-18T13:56:59.268Z,26.67
2018-05-18T13:59:26.801Z,26.70
2018-05-18T14:01:54.308Z,35.17
2018-05-18T14:04:22.602Z,31.03
2018-05-18T14:06:50.103Z,32.97
2018-05-18T14:09:17.635Z,38.73
2018-05-18T14:11:45.133Z,30.97
2018-05-18T14:14:12.643Z,24.40
2018-05-18T14:16:40.171Z,22.80
2018-05-18T14:19:08.444Z,34.60
2018-05-18T14:21:36.744Z,27.10
2018-05-18T14:24:04.250Z,29.17
2018-05-18T14:26:31.882Z,20.73
2018-05-18T14:29:00.240Z,24.93
2018-05-18T14:31:27.767Z,17.57
2018-05-18T14:33:56.052Z,30.53
2018-05-18T14:36:24.316Z,25.00
2018-05-18T14:38:53.784Z,18.90
2018-05-18T14:41:21.296Z,27.57
2018-05-18T14:43:48.823Z,22.80
2018-05-18T14:46:17.101Z,19.83
2018-05-18T14:48:46.130Z,16.23
2018-05-18T14:51:14.644Z,17.83
2018-05-18T14:53:42.130Z,23.20
2018-05-18T14:56:09.631Z,20.20
2018-05-18T14:58:38.430Z,22.53
2018-05-18T15:01:06.655Z,15.30
2018-05-18T15:03:35.281Z,23.77
2018-05-18T15:06:03.253Z,11.73
2018-05-18T15:08:31.223Z,18.77
2018-05-18T15:10:59.121Z,18.90
2018-05-18T15:13:27.664Z,20.80
2018-05-18T15:15:56.552Z,18.10
2018-05-18T15:18:24.414Z,16.07
2018-05-18T15:20:52.208Z,14.97
2018-05-18T15:23:20.761Z,13.63
2018-05-18T15:25:48.526Z,16.63
2018-05-18T15:28:16.291Z,18.10
2018-05-18T15:30:44.094Z,17.20
2018-05-18T15:33:11.814Z,14.50
2018-05-18T15:35:39.629Z,10.20
2018-05-18T15:38:08.875Z,14.27
2018-05-18T15:40:36.740Z,12.90
2018-05-18T15:43:05.422Z,14.50
2018-05-18T15:45:32.948Z,13.07
2018-05-18T15:48:01.332Z,11.73
2018-05-18T15:50:29.635Z,12.37
2018-05-18T15:52:57.139Z,14.13
2018-05-18T15:55:25.448Z,10.17
2018-05-18T15:57:52.964Z,14.03
2018-05-18T16:00:20.466Z,9.30
2018-05-18T16:02:47.996Z,10.57
2018-05-18T16:05:15.500Z,13.10
2018-05-18T16:07:43.024Z,8.07
2018-05-18T16:10:12.291Z,10.30
2018-05-18T16:12:39.797Z,16.00
2018-05-18T16:15:07.316Z,11.00
2018-05-18T16:17:37.255Z,9.50
2018-05-18T16:20:05.723Z,8.20
2018-05-18T16:22:34.024Z,11.63
2018-05-18T16:25:03.532Z,10.00
2018-05-18T16:27:31.078Z,8.00
2018-05-18T16:29:58.603Z,12.00
2018-05-18T16:32:26.101Z,9.53
2018-05-18T16:34:53.619Z,10.37
2018-05-18T16:37:21.124Z,11.17
2018-05-18T16:39:48.643Z,15.60
2018-05-18T16:42:16.920Z,7.97
2018-05-18T16:44:45.191Z,10.33
2018-05-18T16:47:13.474Z,9.27
2018-05-18T16:49:42.699Z,10.67
2018-05-18T16:52:11.189Z,8.20
2018-05-18T16:54:38.746Z,9.00
2018-05-18T16:57:06.996Z,9.27
2018-05-18T16:59:34.491Z,9.90
2018-05-18T17:02:02.012Z,8.80
2018-05-18T17:04:29.519Z,11.13
2018-05-18T17:06:57.011Z,8.57
2018-05-18T17:09:25.309Z,8.07
2018-05-18T17:11:52.833Z,9.53
2018-05-18T17:14:20.360Z,8.83
2018-05-18T17:16:47.857Z,6.80
2018-05-18T17:19:16.223Z,8.80
2018-05-18T17:21:44.501Z,9.23
2018-05-18T17:24:12.779Z,9.37
2018-05-18T17:26:41.077Z,9.50
2018-05-18T17:29:08.589Z,12.97
2018-05-18T17:31:36.140Z,11.90
2018-05-18T17:34:03.645Z,9.00
2018-05-18T17:36:31.164Z,8.50
2018-05-18T17:38:59.451Z,8.77
2018-05-18T17:41:27.807Z,6.80
2018-05-18T17:43:55.322Z,7.60
2018-05-18T17:46:22.824Z,7.10
2018-05-18T17:48:50.432Z,9.63
2018-05-18T17:51:18.863Z,6.00
2018-05-18T17:53:46.400Z,9.40
2018-05-18T17:56:13.931Z,10.07
2018-05-18T17:58:41.482Z,11.10
2018-05-18T18:01:09.014Z,6.87
2018-05-18T18:03:36.518Z,7.67
2018-05-18T18:06:05.977Z,7.50
2018-05-18T18:08:34.281Z,8.37
2018-05-18T18:11:01.800Z,6.73
2018-05-18T18:13:29.308Z,5.90
2018-05-18T18:15:56.827Z,8.07
2018-05-18T18:18:25.101Z,8.10
2018-05-18T18:20:53.528Z,6.73
2018-05-18T18:23:21.052Z,6.80
2018-05-18T18:25:49.325Z,8.07
2018-05-18T18:28:17.623Z,6.23
2018-05-18T18:30:45.125Z,8.30
2018-05-18T18:33:12.649Z,7.73
2018-05-18T18:35:40.165Z,9.63
2018-05-18T18:38:08.460Z,8.07
2018-05-18T18:40:36.916Z,6.70
2018-05-18T18:43:05.194Z,6.20
2018-05-18T18:45:32.748Z,7.47
2018-05-18T18:48:01.021Z,7.43
2018-05-18T18:50:29.310Z,7.13
2018-05-18T18:52:56.819Z,5.07
2018-05-18T18:55:24.376Z,10.17
2018-05-18T18:57:51.910Z,6.83
2018-05-18T19:00:19.444Z,7.67
2018-05-18T19:02:46.958Z,5.47
2018-05-18T19:05:14.487Z,5.23
2018-05-18T19:07:42.048Z,9.47
2018-05-18T19:10:09.545Z,7.60
2018-05-18T19:12:39.828Z,7.47
2018-05-18T19:15:07.349Z,8.67
2018-05-18T19:17:35.672Z,5.60
2018-05-18T19:20:03.171Z,10.57
2018-05-18T19:25:05.446Z,13.63
2018-05-18T19:27:33.767Z,8.90
2018-05-18T19:30:01.271Z,9.13
2018-05-18T19:32:28.764Z,7.50
2018-05-18T19:34:56.312Z,13.10
2018-05-18T19:37:24.581Z,8.03
2018-05-18T19:39:52.887Z,8.30
2018-05-18T19:42:20.412Z,11.30
2018-05-18T19:44:48.718Z,9.00
2018-05-18T19:47:16.260Z,9.63
2018-05-18T19:49:43.799Z,7.03
2018-05-18T19:52:12.064Z,9.37
2018-05-18T19:54:39.569Z,9.03
2018-05-18T19:57:09.074Z,11.43
2018-05-18T19:59:36.588Z,12.33
2018-05-18T20:02:04.888Z,14.70
2018-05-18T20:04:32.387Z,16.30
2018-05-18T20:06:59.920Z,7.43
2018-05-18T20:09:27.437Z,9.43
2018-05-18T20:11:55.739Z,10.60
2018-05-18T20:14:23.241Z,13.33
2018-05-18T20:16:50.780Z,7.30
2018-05-18T20:19:18.279Z,14.93
2018-05-18T20:21:46.566Z,9.33
2018-05-18T20:24:14.863Z,9.20
2018-05-18T20:26:42.371Z,7.77
2018-05-18T20:29:09.902Z,13.27
2018-05-18T20:31:37.410Z,12.13
2018-05-18T20:34:05.723Z,6.30
2018-05-18T20:36:33.248Z,8.10
2018-05-18T20:39:01.560Z,9.33
2018-05-18T20:41:29.072Z,9.50
2018-05-18T20:43:57.392Z,8.63
2018-05-18T20:46:25.880Z,10.13
2018-05-18T20:48:53.372Z,9.20
2018-05-18T20:51:20.911Z,6.40
2018-05-18T20:53:48.413Z,6.90
2018-05-18T20:56:16.712Z,9.00
2018-05-18T20:58:44.220Z,9.23
2018-05-18T21:01:12.499Z,6.70
2018-05-18T21:03:40.138Z,5.80
2018-05-18T21:06:07.562Z,10.90
2018-05-18T21:08:35.093Z,8.27
2018-05-18T21:11:02.609Z,8.63
2018-05-18T21:13:30.207Z,6.67
2018-05-18T21:15:58.512Z,9.57
2018-05-18T21:18:26.077Z,8.73
2018-05-18T21:20:53.586Z,6.50
2018-05-18T21:23:21.858Z,7.20
2018-05-18T21:25:49.388Z,6.77
2018-05-18T21:28:16.890Z,5.97
2018-05-18T21:30:44.446Z,8.43
2018-05-18T21:33:11.968Z,9.90
2018-05-18T21:35:40.492Z,5.10
2018-05-18T21:38:08.007Z,6.10
2018-05-18T21:40:35.638Z,7.80
2018-05-18T21:43:03.142Z,8.33
2018-05-18T21:45:30.641Z,10.13
2018-05-18T21:47:58.213Z,8.13
2018-05-18T21:50:25.724Z,6.53
2018-05-18T21:52:54.024Z,5.63
2018-05-18T21:55:21.544Z,6.27
2018-05-18T21:57:49.077Z,6.50
2018-05-18T22:00:16.592Z,6.77
2018-05-18T22:02:45.170Z,7.20
2018-05-18T22:05:13.644Z,8.53
2018-05-18T22:07:42.007Z,5.50
2018-05-18T22:10:12.268Z,5.77
2018-05-18T22:12:39.776Z,4.90
2018-05-18T22:15:08.071Z,5.97
2018-05-18T22:17:36.379Z,5.20
2018-05-18T22:20:03.903Z,4.60
2018-05-18T22:22:34.160Z,10.07
2018-05-18T22:25:02.607Z,6.30
2018-05-18T22:27:30.132Z,5.90
2018-05-18T22:29:58.408Z,5.37
2018-05-18T22:32:25.921Z,5.47
2018-05-18T22:34:53.463Z,10.43
2018-05-18T22:37:20.976Z,7.97
2018-05-18T22:39:48.500Z,7.60
2018-05-18T22:42:16.008Z,4.27
2018-05-18T22:44:44.303Z,4.50
2018-05-18T22:47:11.812Z,6.13
2018-05-18T22:49:39.340Z,5.90
2018-05-18T22:52:06.876Z,7.30
2018-05-18T22:54:34.395Z,5.97
2018-05-18T22:57:02.705Z,8.70
2018-05-18T22:59:31.008Z,8.70
2018-05-18T23:01:58.547Z,5.57
2018-05-18T23:04:26.080Z,5.67
2018-05-18T23:06:54.350Z,5.47
2018-05-18T23:09:21.890Z,5.17
2018-05-18T23:11:49.412Z,5.53
2018-05-18T23:14:16.914Z,5.83
2018-05-18T23:16:46.389Z,5.30
2018-05-18T23:19:13.904Z,5.20
2018-05-18T23:21:41.435Z,6.93
2018-05-18T23:24:08.939Z,4.83
2018-05-18T23:26:36.467Z,8.67
2018-05-18T23:29:04.744Z,5.10
2018-05-18T23:31:33.012Z,7.07
2018-05-18T23:34:01.306Z,5.30
2018-05-18T23:36:28.815Z,6.53
2018-05-18T23:38:56.373Z,5.00
2018-05-18T23:41:23.877Z,4.67
2018-05-18T23:43:51.439Z,5.73
2018-05-18T23:46:18.952Z,4.83
2018-05-18T23:48:46.488Z,9.63
2018-05-18T23:51:14.951Z,6.87
2018-05-18T23:53:43.433Z,6.30
2018-05-18T23:56:10.958Z,5.90
2018-05-18T23:58:39.248Z,4.40
